Time;durP1;ratioP1;P1;durP2;ratioP2;P2;SDS_P1;SDS_P2;PMS_P1;PMS_P2;Temp;Humidity;BMP_temperature;BMP_pressure;BME280_temperature;BME280_humidity;BME280_pressure;Samples;Min_cycle;Max_cycle;Signal;HPM_P1;HPM_P2
2024/02/23 00:01:53;;;;;;;16.60;4.95;;;8.60;99.90;;;8.84;89.43;98520.06;4931529;29;20087;-64
2024/02/23 00:04:22;;;;;;;15.07;5.57;;;8.70;99.90;;;8.88;90.11;98529.56;4935212;29;20041;-63
2024/02/23 00:06:50;;;;;;;21.02;5.25;;;8.70;99.90;;;8.85;90.03;98524.38;4919747;29;20044;-63
2024/02/23 00:09:19;;;;;;;19.40;5.82;;;8.70;99.90;;;8.93;89.38;98520.59;4934326;29;20104;-62
2024/02/23 00:11:49;;;;;;;20.13;5.10;;;8.80;99.90;;;8.94;89.00;98532.81;4920355;29;20411;-61
2024/02/23 00:14:18;;;;;;;24.00;5.18;;;8.80;99.90;;;8.80;88.40;98534.25;4920058;29;20052;-62
2024/02/23 00:16:48;;;;;;;15.52;5.03;;;8.70;99.90;;;8.77;88.15;98543.09;4919923;29;20044;-62
2024/02/23 00:19:18;;;;;;;15.57;5.72;;;8.60;99.90;;;8.78;90.24;98546.63;4919750;29;20123;-62
2024/02/23 00:21:49;;;;;;;22.52;5.60;;;8.60;99.90;;;8.79;91.63;98538.66;4919859;29;20135;-62
2024/02/23 00:24:20;;;;;;;24.30;5.75;;;8.60;99.90;;;8.67;91.36;98540.84;4919905;29;20083;-62
2024/02/23 00:26:50;;;;;;;29.75;6.63;;;8.50;99.90;;;8.65;92.09;98548.78;4919778;29;20056;-62
2024/02/23 00:29:19;;;;;;;24.42;6.75;;;8.50;99.90;;;8.64;92.59;98540.94;4919558;29;20048;-64
2024/02/23 00:31:49;;;;;;;23.38;6.03;;;8.50;99.90;;;8.75;93.10;98549.38;4919433;29;20047;-62
2024/02/23 00:34:17;;;;;;;19.60;5.97;;;8.50;99.90;;;8.74;92.34;98559.03;4919638;29;20062;-63
2024/02/23 00:36:46;;;;;;;21.90;6.20;;;8.60;99.90;;;8.77;92.50;98558.06;4919325;29;20048;-62
2024/02/23 00:39:14;;;;;;;23.48;6.40;;;8.60;99.90;;;8.69;93.30;98568.00;4919580;29;20126;-62
2024/02/23 00:41:42;;;;;;;21.23;5.95;;;8.60;99.90;;;8.43;94.06;98552.19;4934167;29;20056;-62
2024/02/23 00:44:11;;;;;;;23.30;5.97;;;8.50;99.90;;;8.37;93.75;98565.56;4918966;29;20056;-63
2024/02/23 00:46:39;;;;;;;19.08;6.10;;;8.30;99.90;;;8.41;93.93;98570.69;4917453;29;20052;-65
2024/02/23 00:49:09;;;;;;;22.70;6.28;;;8.30;99.90;;;8.43;93.30;98573.28;4917412;29;20406;-63
2024/02/23 00:51:37;;;;;;;23.17;6.28;;;8.20;99.90;;;8.37;93.38;98586.63;4917165;29;20072;-66
2024/02/23 00:54:07;;;;;;;18.50;5.68;;;8.30;99.90;;;8.49;94.31;98594.16;4917196;29;20078;-65
2024/02/23 00:56:36;;;;;;;25.75;6.13;;;8.30;99.90;;;8.44;94.36;98590.81;4917154;29;20070;-62
2024/02/23 00:59:18;;;;;;;22.10;6.10;;;8.30;99.90;;;8.12;94.43;98526.84;4917179;29;20411;-64
2024/02/23 01:01:46;;;;;;;20.40;6.07;;;8.30;99.90;;;8.42;93.91;98590.84;4917250;29;20136;-66
2024/02/23 01:04:16;;;;;;;24.42;6.13;;;8.30;99.90;;;8.46;93.59;98594.25;4916924;29;20055;-62
2024/02/23 01:06:45;;;;;;;18.13;6.13;;;8.30;99.90;;;8.23;93.55;98591.47;4916921;29;20048;-63
2024/02/23 01:09:16;;;;;;;21.15;5.85;;;8.20;99.90;;;8.28;93.77;98600.09;4916771;29;20048;-63
2024/02/23 01:11:44;;;;;;;18.00;5.50;;;8.20;99.90;;;8.15;92.24;98599.59;4931739;29;20060;-63
2024/02/23 01:14:12;;;;;;;17.10;5.60;;;8.10;99.90;;;8.25;92.41;98608.09;4931247;29;20044;-63
2024/02/23 01:16:41;;;;;;;18.42;5.57;;;8.10;99.90;;;8.23;91.86;98609.91;4915817;29;20056;-64
2024/02/23 01:19:10;;;;;;;17.30;5.50;;;8.10;99.90;;;8.27;91.96;98622.06;4916956;29;20107;-62
2024/02/23 01:21:39;;;;;;;20.50;5.75;;;8.10;99.90;;;8.27;92.26;98629.97;4916749;29;20131;-65
2024/02/23 01:24:08;;;;;;;24.50;6.27;;;8.10;99.90;;;8.22;91.98;98632.72;4916611;29;20063;-63
2024/02/23 01:26:36;;;;;;;24.50;5.90;;;8.10;99.90;;;8.11;91.20;98638.31;4916894;29;20344;-63
2024/02/23 01:29:10;;;;;;;21.15;5.65;;;8.00;99.90;;;8.11;90.54;98640.94;4916524;29;20052;-62
2024/02/23 01:31:38;;;;;;;19.05;5.63;;;8.00;99.90;;;8.15;90.18;98631.19;4916561;29;20056;-64
2024/02/23 01:34:06;;;;;;;12.35;4.85;;;8.00;99.90;;;8.16;90.22;98649.59;4916435;29;20040;-62
2024/02/23 01:36:36;;;;;;;20.27;5.80;;;8.00;99.90;;;8.19;89.56;98657.38;4916402;29;20048;-64
2024/02/23 01:39:06;;;;;;;15.68;5.45;;;8.00;99.90;;;8.13;89.00;98652.28;4931453;29;20091;-64
2024/02/23 01:41:35;;;;;;;;;;;8.00;99.90;;;8.17;89.54;98656.56;4917048;29;20048;-63
2024/02/23 01:44:03;;;;;;;14.65;5.25;;;8.00;99.90;;;8.20;89.15;98659.13;4916820;29;19929;-64
2024/02/23 01:46:32;;;;;;;22.40;6.03;;;8.10;99.90;;;8.32;89.55;98654.41;4916384;29;20502;-63
2024/02/23 01:49:01;;;;;;;14.63;4.75;;;8.20;99.90;;;8.23;89.07;98648.47;4916117;29;20048;-63
2024/02/23 01:51:29;;;;;;;18.92;5.38;;;8.10;99.90;;;7.95;88.29;98633.56;4931002;29;20070;-64
2024/02/23 01:53:58;;;;;;;17.38;5.85;;;8.10;99.90;;;8.15;87.48;98652.22;4916122;29;20048;-62
2024/02/23 01:56:28;;;;;;;21.92;5.57;;;8.00;99.90;;;8.10;88.20;98648.91;4916649;29;20091;-64
2024/02/23 01:58:57;;;;;;;20.10;5.80;;;8.00;99.90;;;8.25;88.00;98668.66;4916640;29;20075;-63
2024/02/23 02:01:25;;;;;;;17.63;4.90;;;8.00;99.90;;;8.27;88.42;98666.84;4916179;29;20079;-64
2024/02/23 02:03:56;;;;;;;19.20;6.30;;;8.10;99.90;;;8.28;88.38;98663.31;4931014;29;20063;-64
2024/02/23 02:06:25;;;;;;;19.25;5.68;;;8.10;99.90;;;8.31;89.01;98664.06;4915932;29;20121;-63
2024/02/23 02:08:55;;;;;;;16.70;5.32;;;8.20;99.90;;;8.43;88.87;98668.09;4916255;29;20058;-63
2024/02/23 02:11:23;;;;;;;16.98;5.20;;;8.20;99.90;;;8.41;89.34;98669.91;4915845;29;20103;-65
2024/02/23 02:13:53;;;;;;;17.70;5.18;;;8.30;99.90;;;8.48;89.48;98674.09;4930549;29;20056;-64
2024/02/23 02:16:21;;;;;;;16.50;5.47;;;8.30;99.90;;;8.41;89.02;98676.03;4916085;29;20397;-63
2024/02/23 02:18:50;;;;;;;17.15;5.07;;;8.30;99.90;;;8.34;88.86;98681.56;4915659;29;20103;-63
2024/02/23 02:21:18;;;;;;;15.80;5.63;;;8.20;99.90;;;8.36;88.29;98674.47;4916327;29;20051;-64
2024/02/23 02:23:47;;;;;;;16.25;4.82;;;8.20;99.90;;;8.36;87.90;98674.47;4915569;29;20048;-62
2024/02/23 02:26:15;;;;;;;17.10;5.35;;;8.20;99.90;;;8.41;87.44;98669.91;4915361;29;20123;-63
2024/02/23 02:28:43;;;;;;;15.55;5.45;;;8.20;99.90;;;8.40;87.41;98682.22;4915513;29;20043;-64
2024/02/23 02:31:13;;;;;;;14.65;5.15;;;8.20;99.90;;;8.40;87.74;98676.94;4915469;29;20342;-63
2024/02/23 02:33:41;;;;;;;17.57;6.20;;;8.20;99.90;;;8.46;87.49;98681.19;4915517;29;20070;-65
2024/02/23 02:36:11;;;;;;;17.58;5.18;;;8.30;99.90;;;8.39;87.64;98675.22;4915613;29;20287;-64
2024/02/23 02:38:39;;;;;;;15.50;5.13;;;8.20;99.90;;;8.38;87.88;98686.66;4915316;29;20075;-63
2024/02/23 02:41:08;;;;;;;17.52;5.93;;;8.20;99.90;;;8.40;87.64;98671.69;4915545;29;20044;-63
2024/02/23 02:43:36;;;;;;;15.25;5.03;;;8.30;99.90;;;8.49;87.79;98689.84;4915541;29;20060;-63
2024/02/23 02:46:05;;;;;;;17.08;5.85;;;8.30;99.90;;;8.49;87.80;98689.84;4915315;29;20056;-63
2024/02/23 02:48:34;;;;;;;18.63;5.13;;;8.30;99.90;;;8.49;87.61;98688.97;4929793;29;20494;-64
2024/02/23 02:51:03;;;;;;;13.07;4.80;;;8.30;99.90;;;8.49;87.71;98691.59;4915329;29;20387;-65
2024/02/23 02:53:31;;;;;;;14.40;4.88;;;8.30;99.90;;;8.43;89.14;98683.91;4915053;29;20092;-63
2024/02/23 02:56:00;;;;;;;18.73;5.35;;;8.20;99.90;;;8.38;89.32;98676.13;4914064;29;20048;-64
2024/02/23 02:58:28;;;;;;;13.07;5.18;;;8.20;99.90;;;8.33;89.62;98682.44;4915541;29;20052;-64
2024/02/23 03:00:57;;;;;;;11.68;4.63;;;8.20;99.90;;;8.29;90.38;98689.59;4915609;29;20072;-63
2024/02/23 03:03:25;;;;;;;16.80;5.18;;;8.10;99.90;;;8.24;90.54;98686.22;4929784;29;20048;-64
2024/02/23 03:05:55;;;;;;;16.20;5.88;;;8.10;99.90;;;8.06;90.62;98692.88;4915101;29;20056;-63
2024/02/23 03:08:23;;;;;;;16.75;4.88;;;8.00;99.90;;;8.03;91.69;98690.31;4914933;29;20450;-66
2024/02/23 03:10:52;;;;;;;17.20;4.80;;;7.90;99.90;;;8.05;92.09;98709.56;4929678;29;20498;-65
2024/02/23 03:13:20;;;;;;;17.40;5.68;;;7.90;99.90;;;8.01;92.24;98693.94;4914781;29;20041;-63
2024/02/23 03:15:49;;;;;;;15.02;5.03;;;7.90;99.90;;;8.04;92.60;98702.59;4914812;29;20083;-63
2024/02/23 03:18:17;;;;;;;10.30;5.13;;;7.90;99.90;;;7.98;92.77;98697.50;4914724;29;20120;-63
2024/02/23 03:20:46;;;;;;;19.63;5.60;;;7.80;99.90;;;8.04;92.89;98688.56;4915350;29;20530;-64
2024/02/23 03:23:16;;;;;;;15.32;5.72;;;7.90;99.90;;;7.98;92.82;98699.25;4914721;29;20052;-64
2024/02/23 03:25:44;;;;;;;15.13;5.13;;;7.80;99.90;;;7.80;93.09;98713.81;4915027;29;20123;-64
2024/02/23 03:28:12;;;;;;;15.65;4.90;;;7.70;99.90;;;7.74;94.10;98718.38;4915138;29;20093;-63
2024/02/23 03:30:41;;;;;;;20.45;5.53;;;7.60;99.90;;;7.75;93.94;98713.09;4914555;29;20056;-64
2024/02/23 03:33:09;;;;;;;15.80;5.18;;;7.60;99.90;;;7.81;94.10;98698.88;4914591;29;20474;-64
2024/02/23 03:35:38;;;;;;;16.05;5.20;;;7.60;99.90;;;7.73;94.54;98728.03;4915625;29;20397;-65
2024/02/23 03:38:06;;;;;;;14.18;4.82;;;7.60;99.90;;;7.59;95.05;98706.50;4921036;29;20120;-63
2024/02/23 03:40:36;;;;;;;17.25;5.50;;;7.50;99.90;;;7.46;96.28;98699.84;4921092;29;20047;-65
2024/02/23 03:43:05;;;;;;;13.48;4.90;;;7.40;99.90;;;7.38;96.60;98687.81;4921074;29;20060;-64
2024/02/23 03:45:34;;;;;;;16.90;5.85;;;7.40;99.90;;;7.42;97.20;98685.06;4920799;29;20395;-63
2024/02/23 03:48:04;;;;;;;16.23;5.20;;;7.30;99.90;;;7.27;97.60;98664.44;4935560;29;20067;-66
2024/02/23 03:50:33;;;;;;;15.27;5.00;;;7.30;99.90;;;7.37;98.12;98693.97;4921105;29;20055;-65
2024/02/23 03:53:03;;;;;;;14.02;5.05;;;7.20;99.90;;;7.39;98.75;98705.31;4920766;29;20071;-62
2024/02/23 03:55:32;;;;;;;17.65;5.10;;;7.20;99.90;;;7.40;98.33;98697.38;4920650;29;20048;-63
2024/02/23 03:58:02;;;;;;;19.75;5.75;;;7.30;99.90;;;7.41;98.36;98708.78;4920990;29;20119;-63
2024/02/23 04:00:30;;;;;;;14.87;4.97;;;7.30;99.90;;;7.38;99.20;98686.06;4920899;29;20096;-64
2024/02/23 04:02:58;;;;;;;17.67;5.25;;;7.20;99.90;;;7.22;99.53;98700.50;4920618;29;20130;-63
2024/02/23 04:05:27;;;;;;;22.73;6.60;;;7.10;99.90;;;7.31;99.89;98692.38;4921166;29;20056;-66
2024/02/23 04:07:55;;;;;;;12.85;5.32;;;7.20;99.90;;;7.18;100.00;98688.34;4920903;29;20139;-63
2024/02/23 04:10:24;;;;;;;19.27;5.10;;;7.10;99.90;;;7.22;100.00;98703.13;4920469;29;20063;-64
2024/02/23 04:12:52;;;;;;;22.58;5.85;;;7.10;99.90;;;7.27;100.00;98704.75;4920493;29;20048;-63
2024/02/23 04:15:22;;;;;;;19.67;6.40;;;7.10;99.90;;;7.26;100.00;98696.88;4920535;29;20470;-63
2024/02/23 04:17:50;;;;;;;19.30;5.60;;;7.10;99.90;;;7.19;100.00;98685.69;4935403;29;20545;-64
2024/02/23 04:20:18;;;;;;;15.68;5.13;;;7.10;99.90;;;7.25;100.00;98697.81;4920525;29;20048;-63
2024/02/23 04:22:47;;;;;;;19.90;5.30;;;7.10;99.90;;;7.14;100.00;98715.63;4920523;29;20127;-65
2024/02/23 04:25:15;;;;;;;16.13;4.80;;;7.10;99.90;;;7.18;100.00;98696.25;4919946;29;20064;-63
2024/02/23 04:27:44;;;;;;;17.27;5.57;;;7.10;99.90;;;7.27;100.00;98707.38;4920389;29;20040;-64
2024/02/23 04:30:13;;;;;;;14.60;5.30;;;7.10;99.90;;;7.20;100.00;98700.53;4920636;29;20100;-63
2024/02/23 04:32:44;;;;;;;12.32;4.60;;;7.10;99.90;;;7.20;100.00;98692.66;4920642;29;20048;-64
2024/02/23 04:35:12;;;;;;;12.18;4.55;;;7.10;99.90;;;7.29;100.00;98704.72;4920425;29;20099;-63
2024/02/23 04:37:40;;;;;;;16.50;4.88;;;7.10;99.90;;;7.32;100.00;98693.25;4920496;29;20652;-63
2024/02/23 04:40:11;;;;;;;14.23;5.05;;;7.20;99.90;;;7.39;100.00;98690.41;4920857;29;20095;-63
2024/02/23 04:42:39;;;;;;;12.73;4.68;;;7.30;99.90;;;7.37;100.00;98702.75;4920606;29;20068;-63
2024/02/23 04:45:09;;;;;;;7.03;3.90;;;7.20;99.90;;;7.21;99.59;98690.91;4934906;29;20059;-64
2024/02/23 04:47:40;;;;;;;7.35;4.03;;;7.20;99.90;;;7.22;98.57;98682.09;4918738;29;20059;-62
2024/02/23 04:50:11;;;;;;;12.70;4.25;;;7.10;99.90;;;7.30;98.49;98698.53;4917187;29;20040;-63
2024/02/23 04:52:39;;;;;;;9.57;4.35;;;7.20;99.90;;;7.38;98.03;98693.94;4917298;29;20513;-64
2024/02/23 04:55:08;;;;;;;4.63;3.70;;;7.20;99.90;;;7.41;98.02;98699.13;4917159;29;20076;-63
2024/02/23 04:57:38;;;;;;;10.27;4.38;;;7.30;99.90;;;7.44;98.76;98696.41;4917171;29;20506;-65
2024/02/23 05:00:08;;;;;;;12.25;4.78;;;7.30;99.90;;;7.43;100.00;98701.72;4917211;29;20107;-63
2024/02/23 05:02:37;;;;;;;11.70;4.50;;;7.30;99.90;;;7.53;100.00;98698.78;4917887;29;20112;-64
2024/02/23 05:05:06;;;;;;;11.43;4.38;;;7.40;99.90;;;7.47;100.00;98696.31;4932092;29;20092;-63
2024/02/23 05:07:36;;;;;;;13.43;4.55;;;7.30;99.90;;;7.59;100.00;98703.03;4917238;29;20084;-62
2024/02/23 05:10:05;;;;;;;9.20;4.57;;;7.40;99.90;;;7.51;100.00;98703.22;4916959;29;20044;-63
2024/02/23 05:12:33;;;;;;;11.50;4.95;;;7.40;99.90;;;7.63;100.00;98699.38;4916883;29;20139;-64
2024/02/23 05:15:02;;;;;;;8.73;4.90;;;7.40;99.90;;;7.53;100.00;98711.09;4931709;29;20060;-64
2024/02/23 05:17:31;;;;;;;15.10;4.85;;;7.40;99.90;;;7.50;100.00;98693.63;4917320;29;20490;-63
2024/02/23 05:19:59;;;;;;;10.82;4.35;;;7.40;99.90;;;7.52;100.00;98694.44;4916696;29;20522;-63
2024/02/23 05:22:28;;;;;;;16.83;5.47;;;7.40;99.90;;;7.55;100.00;98696.13;4916782;29;20589;-64
2024/02/23 05:24:57;;;;;;;12.38;5.03;;;7.40;99.90;;;7.57;100.00;98723.25;4931550;29;20048;-63
2024/02/23 05:27:27;;;;;;;14.60;5.18;;;7.40;99.90;;;7.60;100.00;98694.22;4916647;29;20494;-64
2024/02/23 05:29:55;;;;;;;10.50;4.95;;;7.50;99.90;;;7.58;100.00;98675.00;4916543;29;20450;-60
2024/02/23 05:32:23;;;;;;;13.45;5.20;;;7.50;99.90;;;7.40;100.00;98671.09;4916750;29;20044;-61
2024/02/23 05:34:54;;;;;;;9.35;5.53;;;7.40;99.90;;;7.58;100.00;98691.63;4916746;29;20056;-62
2024/02/23 05:37:22;;;;;;;13.57;5.68;;;7.40;99.90;;;7.53;100.00;98683.00;4916524;29;20052;-61
2024/02/23 05:39:51;;;;;;;11.65;5.43;;;7.40;99.90;;;7.48;100.00;98669.13;4916415;29;20558;-62
2024/02/23 05:42:21;;;;;;;13.57;5.40;;;7.40;99.90;;;7.52;100.00;98689.19;4916387;29;20044;-61
2024/02/23 05:44:49;;;;;;;12.30;5.43;;;7.40;99.90;;;7.18;99.95;98639.25;4916395;29;20491;-61
2024/02/23 05:47:17;;;;;;;10.82;4.93;;;7.40;99.90;;;7.50;99.90;98682.22;4916555;29;20498;-61
2024/02/23 05:49:46;;;;;;;18.98;5.65;;;7.40;99.90;;;7.54;99.63;98689.13;4916159;29;20107;-62
2024/02/23 05:52:15;;;;;;;10.60;5.35;;;7.40;99.90;;;7.51;99.88;98689.22;4916171;29;20601;-60
2024/02/23 05:54:43;;;;;;;13.55;5.30;;;7.40;99.90;;;7.32;99.70;98624.91;4916146;29;20486;-62
2024/02/23 05:57:11;;;;;;;11.90;5.72;;;7.40;99.90;;;7.48;99.59;98690.16;4916026;29;20048;-61
2024/02/23 05:59:41;;;;;;;12.48;5.88;;;7.40;99.90;;;7.53;99.80;98671.63;4915179;29;20523;-63
2024/02/23 06:02:10;;;;;;;14.60;6.43;;;7.40;99.90;;;7.50;99.73;98703.25;4916275;29;20457;-61
2024/02/23 06:04:38;;;;;;;13.07;6.38;;;7.40;99.90;;;7.61;99.92;98695.94;4930717;29;20450;-61
2024/02/23 06:07:06;;;;;;;12.70;6.80;;;7.40;99.90;;;7.52;99.67;98683.03;4916377;29;20040;-61
2024/02/23 06:09:35;;;;;;;11.35;6.07;;;7.40;99.90;;;7.42;99.43;98661.41;4915777;29;20048;-62
2024/02/23 06:12:03;;;;;;;14.02;6.13;;;7.50;99.90;;;7.55;99.54;98689.06;4915628;29;20040;-60
2024/02/23 06:14:32;;;;;;;10.18;6.85;;;7.50;99.90;;;7.58;99.15;98689.00;4916051;29;20691;-62
2024/02/23 06:17:02;;;;;;;18.70;7.82;;;7.50;99.90;;;7.48;99.34;98658.59;4930534;29;20059;-63
2024/02/23 06:19:31;;;;;;;16.05;6.72;;;7.50;99.90;;;7.61;98.96;98680.16;4916116;29;20052;-63
2024/02/23 06:21:59;;;;;;;11.73;5.65;;;7.50;99.90;;;7.42;98.20;98682.44;4915704;29;20044;-61
2024/02/23 06:24:27;;;;;;;15.30;6.40;;;7.40;99.90;;;7.44;98.26;98662.22;4930437;29;20060;-63
2024/02/23 06:26:57;;;;;;;11.23;6.13;;;7.30;99.90;;;7.53;98.59;98677.75;4915483;29;20451;-62
2024/02/23 06:29:26;;;;;;;13.18;5.78;;;7.40;99.90;;;7.59;98.29;98676.72;4915827;29;20051;-61
2024/02/23 06:31:54;;;;;;;14.77;6.38;;;7.40;99.90;;;7.55;97.83;98675.09;4915290;29;20074;-62
2024/02/23 06:34:24;;;;;;;17.55;5.60;;;7.40;99.90;;;7.50;98.11;98684.84;4915555;29;20101;-64
2024/02/23 06:36:53;;;;;;;11.52;5.50;;;7.40;99.90;;;7.37;97.75;98693.97;4915371;29;20413;-61
2024/02/23 06:39:21;;;;;;;12.82;5.50;;;7.30;99.90;;;7.30;97.81;98695.91;4915644;29;20076;-63
2024/02/23 06:41:50;;;;;;;17.23;6.07;;;7.20;99.90;;;7.28;97.83;98672.28;4915749;29;20052;-64
2024/02/23 06:44:18;;;;;;;10.40;5.47;;;7.20;99.90;;;7.38;97.59;98667.66;4915491;29;20380;-61
2024/02/23 06:46:47;;;;;;;12.07;6.18;;;7.30;99.90;;;7.45;98.07;98703.41;4915616;29;20108;-63
2024/02/23 06:49:15;;;;;;;17.33;6.03;;;7.30;99.90;;;7.46;98.38;98699.84;4915153;29;20048;-63
2024/02/23 06:51:45;;;;;;;15.75;6.97;;;7.30;99.90;;;7.36;97.84;98682.59;4915266;29;20048;-63
2024/02/23 06:54:13;;;;;;;15.73;6.93;;;7.30;99.90;;;7.40;98.52;98691.25;4915064;29;20052;-62
2024/02/23 06:56:41;;;;;;;13.18;6.07;;;7.30;99.90;;;7.34;98.28;98671.25;4915043;29;20283;-62
2024/02/23 06:59:10;;;;;;;13.10;5.65;;;7.30;99.90;;;7.25;98.29;98661.00;4915072;29;20044;-62
2024/02/23 07:01:49;;;;;;;15.38;7.05;;;7.20;99.90;;;7.24;98.48;98646.09;4915307;29;20422;-61
2024/02/23 07:04:18;;;;;;;17.30;6.57;;;7.20;99.90;;;7.14;98.85;98660.44;4914996;29;20108;-62
2024/02/23 07:06:48;;;;;;;14.48;6.18;;;7.10;99.90;;;7.14;98.86;98673.56;4929607;29;20075;-61
2024/02/23 07:09:17;;;;;;;14.18;6.57;;;7.10;99.90;;;7.13;99.29;98716.50;4915471;29;20048;-61
2024/02/23 07:11:46;;;;;;;16.10;6.82;;;7.00;99.90;;;7.13;100.00;98667.44;4914690;29;20068;-63
2024/02/23 07:14:16;;;;;;;13.27;5.95;;;7.00;99.90;;;7.07;100.00;98688.63;4914833;29;20044;-62
2024/02/23 07:16:45;;;;;;;;;;;7.00;99.90;;;7.08;100.00;98682.44;4915764;29;20491;-62
2024/02/23 07:19:13;;;;;;;18.83;7.05;;;7.00;99.90;;;6.99;100.00;98677.44;4914784;29;19949;-62
2024/02/23 07:21:42;;;;;;;14.15;6.28;;;6.90;99.90;;;7.01;100.00;98653.75;4914731;29;20470;-64
2024/02/23 07:24:13;;;;;;;11.77;5.97;;;6.90;99.90;;;7.01;100.00;98688.78;4914933;29;20075;-63
2024/02/23 07:26:41;;;;;;;17.13;7.00;;;6.90;99.90;;;6.94;100.00;98681.09;4914972;29;20410;-61
2024/02/23 07:29:10;;;;;;;18.10;7.03;;;6.80;99.90;;;6.95;100.00;98670.53;4929412;29;20372;-65
2024/02/23 07:31:38;;;;;;;17.90;6.82;;;6.80;99.90;;;6.83;100.00;98709.41;4914750;29;20056;-63
2024/02/23 07:34:06;;;;;;;14.90;7.32;;;6.80;99.90;;;6.71;100.00;98672.91;4914554;29;20056;-65
2024/02/23 07:36:35;;;;;;;15.00;7.28;;;6.70;99.90;;;6.66;100.00;98722.91;4914716;29;20131;-62
2024/02/23 07:39:05;;;;;;;18.40;7.10;;;6.60;99.90;;;6.56;100.00;98662.78;4914456;29;20048;-62
2024/02/23 07:41:34;;;;;;;12.63;6.50;;;6.50;99.90;;;6.51;100.00;98656.75;4915044;29;20060;-62
2024/02/23 07:44:03;;;;;;;13.75;7.25;;;6.50;99.90;;;6.58;100.00;98689.88;4914451;29;20108;-63
2024/02/23 07:46:32;;;;;;;14.30;8.13;;;6.50;99.90;;;6.48;100.00;98676.09;4914250;29;20056;-65
2024/02/23 07:49:00;;;;;;;17.77;7.65;;;6.40;99.90;;;6.49;100.00;98674.31;4914412;29;20045;-66
2024/02/23 07:51:29;;;;;;;18.67;8.02;;;6.40;99.90;;;6.48;100.00;98635.84;4914399;29;20093;-64
2024/02/23 07:53:57;;;;;;;20.27;7.43;;;6.40;99.90;;;6.42;100.00;98638.63;4914325;29;20111;-65
2024/02/23 07:56:25;;;;;;;19.10;7.50;;;6.40;99.90;;;6.39;100.00;98650.03;4914944;29;20067;-68
2024/02/23 07:58:55;;;;;;;19.52;7.88;;;6.30;99.90;;;6.50;100.00;98665.56;4914388;29;20482;-68
2024/02/23 08:01:24;;;;;;;17.45;6.97;;;6.40;99.90;;;6.44;100.00;98658.69;4914657;29;20056;-69
2024/02/23 08:03:52;;;;;;;21.95;7.88;;;6.40;99.90;;;6.47;100.00;98661.22;4914315;29;20075;-65
2024/02/23 08:06:25;;;;;;;17.60;7.13;;;6.40;99.90;;;6.38;100.00;98685.94;4914785;29;20079;-64
2024/02/23 08:08:56;;;;;;;14.35;6.97;;;6.40;99.90;;;6.53;100.00;98676.84;4914384;29;20037;-65
2024/02/23 08:11:24;;;;;;;14.77;7.25;;;6.50;99.90;;;6.55;100.00;98729.31;4929028;29;20075;-67
2024/02/23 08:13:54;;;;;;;17.63;6.95;;;6.50;99.90;;;6.56;100.00;98710.06;4928993;29;20518;-65
2024/02/23 08:16:23;;;;;;;19.27;7.50;;;6.50;99.90;;;6.61;100.00;98634.63;4914308;29;20068;-69
2024/02/23 08:18:51;;;;;;;13.15;6.40;;;6.50;99.90;;;6.57;100.00;98649.59;4914394;29;20107;-65
2024/02/23 08:21:20;;;;;;;19.25;6.75;;;6.50;99.90;;;6.61;100.00;98640.75;4914180;29;20143;-64
2024/02/23 08:23:48;;;;;;;14.45;7.70;;;6.50;99.90;;;6.66;100.00;98648.53;4930908;29;20073;-65
2024/02/23 08:26:17;;;;;;;16.55;6.10;;;6.60;99.90;;;6.74;100.00;98686.81;4917607;29;20056;-64
2024/02/23 08:28:45;;;;;;;15.80;6.80;;;6.60;99.90;;;6.68;100.00;98659.88;4918181;29;20059;-60
2024/02/23 08:31:16;;;;;;;14.32;7.15;;;6.60;99.90;;;6.74;100.00;98649.19;4917432;29;20079;-62
2024/02/23 08:33:45;;;;;;;14.52;6.63;;;6.70;99.90;;;6.75;100.00;98654.41;4917525;29;20051;-63
2024/02/23 08:36:13;;;;;;;15.07;6.85;;;6.70;99.90;;;6.75;100.00;98671.94;4917630;29;20133;-62
2024/02/23 08:38:41;;;;;;;12.07;6.05;;;6.70;99.90;;;6.72;100.00;98680.75;4917990;29;20052;-64
2024/02/23 08:41:10;;;;;;;18.95;6.45;;;6.70;99.90;;;6.75;100.00;98658.81;4932382;29;20504;-62
2024/02/23 08:43:38;;;;;;;15.13;6.38;;;6.70;99.90;;;6.81;100.00;98684.94;4917709;29;20040;-63
2024/02/23 08:46:07;;;;;;;23.38;7.15;;;6.70;99.90;;;6.75;100.00;98650.94;4917942;29;20055;-65
2024/02/23 08:48:39;;;;;;;;;;;6.70;99.90;;;6.78;100.00;98643.81;4918008;29;20068;-65
2024/02/23 08:51:07;;;;;;;15.85;6.68;;;6.70;99.90;;;6.82;100.00;98658.63;4917236;29;19930;-64
2024/02/23 08:53:36;;;;;;;10.68;5.78;;;6.70;99.90;;;6.82;100.00;98655.97;4917567;29;20044;-63
2024/02/23 08:56:07;;;;;;;13.98;6.40;;;6.80;99.90;;;6.93;100.00;98647.84;4917328;29;20040;-64
2024/02/23 08:58:35;;;;;;;12.85;6.15;;;6.80;99.90;;;6.96;100.00;98668.78;4917639;29;20048;-64
2024/02/23 09:01:04;;;;;;;14.95;6.70;;;6.90;99.90;;;6.87;100.00;98648.00;4917286;29;20071;-62
2024/02/23 09:03:33;;;;;;;18.13;6.32;;;6.90;99.90;;;6.95;100.00;98669.69;4917334;29;20051;-62
2024/02/23 09:06:03;;;;;;;14.57;5.93;;;6.90;99.90;;;7.03;100.00;98630.91;4917317;29;20052;-65
2024/02/23 09:08:33;;;;;;;14.10;6.10;;;6.90;99.90;;;7.07;100.00;98651.81;4916961;29;20044;-64
2024/02/23 09:11:01;;;;;;;13.32;5.93;;;7.00;99.90;;;7.06;100.00;98670.28;4916937;29;20434;-64
2024/02/23 09:13:30;;;;;;;17.67;6.60;;;7.00;99.90;;;7.13;100.00;98646.41;4916754;29;20047;-62
2024/02/23 09:15:59;;;;;;;16.13;5.70;;;7.00;99.90;;;7.19;100.00;98634.88;4915686;29;20499;-62
2024/02/23 09:18:27;;;;;;;11.98;5.85;;;7.10;99.90;;;7.16;100.00;98683.13;4931531;29;20205;-61
2024/02/23 09:20:56;;;;;;;10.45;5.43;;;7.10;99.90;;;7.17;100.00;98658.56;4915659;29;20076;-64
2024/02/23 09:23:25;;;;;;;12.32;5.95;;;7.10;99.90;;;7.30;100.00;98716.94;4931162;29;20051;-63
2024/02/23 09:25:54;;;;;;;11.18;5.50;;;7.20;99.90;;;7.29;100.00;98639.84;4931510;29;20088;-63
2024/02/23 09:28:22;;;;;;;20.17;5.80;;;7.20;99.90;;;7.28;100.00;98692.44;4916596;29;20135;-63
2024/02/23 09:30:51;;;;;;;13.95;5.80;;;7.20;99.90;;;7.40;100.00;98662.34;4931580;29;20056;-62
2024/02/23 09:33:21;;;;;;;10.30;5.47;;;7.30;99.90;;;7.43;100.00;98672.78;4915460;29;20051;-62
2024/02/23 09:35:49;;;;;;;25.08;5.95;;;7.30;99.90;;;7.46;100.00;98686.72;4916598;29;20087;-63
2024/02/23 09:38:18;;;;;;;12.32;5.43;;;7.30;99.90;;;7.49;100.00;98675.25;4916806;29;20478;-62
2024/02/23 09:40:48;;;;;;;13.07;5.03;;;7.40;99.90;;;7.62;100.00;98666.97;4916638;29;20036;-61
2024/02/23 09:43:17;;;;;;;12.70;4.80;;;7.50;99.90;;;7.65;100.00;98687.94;4916665;29;20521;-61
2024/02/23 09:45:47;;;;;;;12.75;4.70;;;7.50;99.90;;;7.70;100.00;98672.91;4916472;29;20048;-64
2024/02/23 09:48:18;;;;;;;10.00;4.40;;;7.60;99.90;;;7.72;100.00;98676.34;4916766;29;20045;-61
2024/02/23 09:50:49;;;;;;;10.57;4.70;;;7.60;99.90;;;7.84;100.00;98678.59;4916304;29;20044;-61
2024/02/23 09:53:21;;;;;;;8.77;4.45;;;7.70;99.90;;;7.82;100.00;98698.00;4916388;29;20040;-60
2024/02/23 09:55:52;;;;;;;9.10;5.13;;;7.70;99.90;;;7.87;100.00;98691.69;4916379;29;20542;-61
2024/02/23 09:58:24;;;;;;;11.27;4.68;;;7.80;99.90;;;8.02;100.00;98687.75;4930890;29;20056;-62
2024/02/23 10:00:52;;;;;;;10.65;5.68;;;7.90;99.90;;;8.19;100.00;98683.69;4916311;29;20048;-61
2024/02/23 10:03:25;;;;;;;12.25;5.10;;;8.10;99.90;;;8.19;100.00;98702.13;4915999;29;20056;-64
2024/02/23 10:05:54;;;;;;;11.63;4.60;;;8.10;99.90;;;8.23;100.00;98673.09;4930852;29;20092;-61
2024/02/23 10:08:22;;;;;;;12.68;4.90;;;8.20;99.90;;;8.41;100.00;98712.91;4916529;29;20055;-60
2024/02/23 10:10:52;;;;;;;12.10;5.00;;;8.30;99.90;;;8.46;100.00;98725.97;4915947;29;20119;-62
2024/02/23 10:13:23;;;;;;;11.43;4.60;;;8.30;99.90;;;8.63;100.00;98692.88;4915797;29;20075;-63
2024/02/23 10:15:52;;;;;;;11.80;5.22;;;8.50;99.90;;;8.70;99.53;98712.00;4916227;29;20052;-62
2024/02/23 10:18:40;;;;;;;8.65;4.78;;;8.60;99.90;;;8.61;98.57;98725.50;4916043;29;20143;-64
2024/02/23 10:21:09;;;;;;;10.13;4.40;;;8.50;99.90;;;8.56;98.35;98722.13;4915894;29;20052;-61
2024/02/23 10:23:37;;;;;;;10.18;4.47;;;8.50;99.90;;;8.62;97.95;98714.03;4915599;29;20052;-64
2024/02/23 10:26:09;;;;;;;7.47;4.43;;;8.50;99.90;;;8.62;97.36;98722.78;4915574;29;20044;-61
2024/02/23 10:28:39;;;;;;;11.30;4.53;;;8.50;99.90;;;8.86;98.05;98706.22;4915644;29;20622;-62
2024/02/23 10:31:08;;;;;;;11.98;4.82;;;8.70;99.90;;;8.88;97.23;98751.81;4916020;29;20494;-64
2024/02/23 10:33:41;;;;;;;8.55;4.70;;;8.70;99.90;;;8.87;97.17;98741.31;4930558;29;20132;-64